createdAt,value
2023-03-13T00:03:47.869Z,0.05
2023-03-13T00:15:48.303Z,0.22
2023-03-13T00:27:48.759Z,0.39
2023-03-13T00:39:49.201Z,0.28
2023-03-13T00:51:49.693Z,0.01
2023-03-13T01:03:50.119Z,0.73
2023-03-13T01:15:50.605Z,0.12
2023-03-13T01:27:51.050Z,0.40
2023-03-13T01:39:51.463Z,1.42
2023-03-13T01:51:51.931Z,0.70
2023-03-13T02:03:52.362Z,1.12
2023-03-13T02:15:52.867Z,2.00
2023-03-13T02:27:53.286Z,3.21
2023-03-13T02:39:53.708Z,3.95
2023-03-13T02:51:54.187Z,2.31
2023-03-13T03:03:54.657Z,2.10
2023-03-13T03:15:55.091Z,1.55
2023-03-13T03:27:55.547Z,2.89
2023-03-13T03:39:55.992Z,2.27
2023-03-13T03:51:56.440Z,0.74
2023-03-13T04:03:56.896Z,0.86
2023-03-13T04:15:57.381Z,0.30
2023-03-13T04:27:57.810Z,0.58
2023-03-13T04:39:58.290Z,0.05
2023-03-13T04:51:58.704Z,0.00
2023-03-13T05:03:59.152Z,0.06
2023-03-13T05:15:59.638Z,0.55
2023-03-13T05:28:00.119Z,0.30
2023-03-13T05:40:00.509Z,0.13
2023-03-13T05:52:00.967Z,0.01
2023-03-13T06:04:01.614Z,0.58
2023-03-13T06:16:01.937Z,0.84
2023-03-13T06:28:02.320Z,0.35
2023-03-13T06:40:02.773Z,3.61
2023-03-13T06:52:03.209Z,3.51
2023-03-13T07:04:03.728Z,4.34
2023-03-13T07:16:04.132Z,4.32
2023-03-13T07:28:04.644Z,5.13
2023-03-13T07:40:05.051Z,3.37
2023-03-13T07:52:05.496Z,2.55
2023-03-13T08:04:05.955Z,3.45
2023-03-13T08:16:06.519Z,4.55
2023-03-13T08:28:06.856Z,4.42
2023-03-13T08:40:07.298Z,4.05
2023-03-13T08:52:07.739Z,4.74
2023-03-13T09:04:08.299Z,5.24
2023-03-13T09:16:08.699Z,4.57
2023-03-13T09:28:09.120Z,4.68
2023-03-13T09:40:09.546Z,5.23
2023-03-13T09:52:09.983Z,6.40
2023-03-13T10:04:10.453Z,3.97
2023-03-13T10:16:11.058Z,2.58
2023-03-13T10:28:11.357Z,5.41
2023-03-13T10:40:11.822Z,4.33
2023-03-13T10:52:12.257Z,3.21
2023-03-13T11:04:12.758Z,2.76
2023-03-13T11:16:13.204Z,2.52
2023-03-13T11:28:13.662Z,2.49
2023-03-13T11:40:14.079Z,2.93
2023-03-13T11:52:14.563Z,3.42
2023-03-13T12:04:15.054Z,3.57
2023-03-13T12:16:15.482Z,3.14
2023-03-13T12:28:15.960Z,2.55
2023-03-13T12:40:16.409Z,4.45
2023-03-13T12:52:16.793Z,3.16
2023-03-13T13:04:17.244Z,2.81
2023-03-13T13:16:17.799Z,4.22
2023-03-13T13:28:18.184Z,1.46
2023-03-13T13:40:18.668Z,4.15
2023-03-13T13:52:19.088Z,3.31
2023-03-13T14:04:19.517Z,2.01
2023-03-13T14:16:21.815Z,1.90
2023-03-13T14:28:20.451Z,2.51
2023-03-13T14:40:20.905Z,2.15
2023-03-13T14:52:21.352Z,1.46
2023-03-13T15:04:21.865Z,1.46
2023-03-13T15:16:22.281Z,2.10
2023-03-13T15:28:22.731Z,2.67
2023-03-13T15:40:23.172Z,1.25
2023-03-13T15:52:23.662Z,1.66
2023-03-13T16:04:24.089Z,1.01
2023-03-13T16:16:24.603Z,2.24
2023-03-13T16:28:24.987Z,1.63
2023-03-13T16:40:25.445Z,1.29
2023-03-13T16:52:25.886Z,1.15
2023-03-13T17:04:26.440Z,0.90
2023-03-13T17:16:26.822Z,0.35
2023-03-13T17:28:27.282Z,0.33
2023-03-13T17:40:27.705Z,0.22
2023-03-13T17:52:28.172Z,0.63
2023-03-13T18:04:28.683Z,0.82
2023-03-13T18:16:29.060Z,0.83
2023-03-13T18:28:29.502Z,0.00
2023-03-13T18:40:29.969Z,0.99
2023-03-13T18:52:30.424Z,0.45
2023-03-13T19:04:30.899Z,0.43
2023-03-13T19:16:31.414Z,0.51
2023-03-13T19:28:31.815Z,0.50
2023-03-13T19:40:32.240Z,0.82
2023-03-13T19:52:32.713Z,0.13
2023-03-13T20:04:33.170Z,0.68
2023-03-13T20:16:35.057Z,1.92
2023-03-13T20:28:34.046Z,2.49
2023-03-13T20:40:34.544Z,2.97
2023-03-13T20:52:34.954Z,2.52
2023-03-13T21:04:35.484Z,2.13
2023-03-13T21:16:35.969Z,1.96
2023-03-13T21:28:36.344Z,1.98
2023-03-13T21:40:36.780Z,2.65
2023-03-13T21:52:39.867Z,3.52
2023-03-13T22:04:37.678Z,3.86
2023-03-13T22:16:38.150Z,2.53
2023-03-13T22:28:38.557Z,2.88
2023-03-13T22:40:39.047Z,2.27
2023-03-13T22:52:39.470Z,2.50
2023-03-13T23:04:40.071Z,3.87
2023-03-13T23:16:40.409Z,2.13
2023-03-13T23:28:40.854Z,1.64
2023-03-13T23:40:41.306Z,2.53
2023-03-13T23:52:41.780Z,3.65
